« 臨時 富山空港 2017/3/15 wed | トップページ | 定点 富山空港 2017/3/17 fri »

2017/03/16

空旅 SJO621成田-広島 2017/3/7 tue

さくらの山の立看に誘われて、本日搭乗は、初春秋航空日本。国内LCCで唯一B3運用です。

RJAA 072100Z 00000KT 5000 BR FEW030 M02/M03 Q1005 NOSIG RMK 1CU030 A2970

20170308_sjo621_00rjaa

3タミ出発の最初は春秋が続くのね・・

20170308_sjo621_01rjaa

ここら編は、朝の国際線関係

20170308_sjo621_02bhnr

6時を廻って、おはよう到着便のラッシュ

20170308_sjo621_03rjaa

朝日がオレンジ

20170308_sjo621_04rjaa

この日の朝は、晴天の放射冷却でマイナスの気温。機体は凍り付いていて、デアイシング実施中。

20170308_sjo621_05rjaa

先程の機体へバスで向かいます。緑、黄、橙と並んでいました。

20170308_sjo621_06ja01gr

初搭乗に一番搭乗・・・

20170308_sjo621_07rjaa

うぐいす色で統一・・と思ったが、CMは朱色でした

RJAA 072200Z 22002KT 9999 FEW030 M01/M01 Q1006 BECMG 30005KT

20170308_sjo621_08rjaa

ひゃー、陽があたっていなかった右側は、窓が凍っています。

20170308_sjo621_09rjaa

でも、滑走路に到着するまでに流れました。RW34Rから離陸。

20170308_sjo621_10rjaa

茶色の敷地内

20170308_sjo621_11tone

利根川には、河雲がかかっています

20170308_sjo621_12rjaa

ライトターンでリバース。成田空港がよく拝めました。

20170308_sjo621_13

西行きは、ドンドン上昇していきます

20170308_sjo621_14ryugasaki

龍ヶ崎飛行場

20170308_sjo621_15ootone

大利根飛行場

20170308_sjo621_16rjtl

下総飛行場は、直上通過

20170308_sjo621_17tokorozawa

米空軍所沢通信施設(旧陸軍所沢飛行場)

20170308_sjo621_18rjtj

左上に見えるは、入間飛行場

20170308_sjo621_19rjtj

ちょい南を通過で、綺麗に眺められました

20170308_sjo621_20rjta

横田飛行場も直上通過。よって富士山は左側です。 

20170308_sjo621_21rjaf

遠くに松本空港を望むことができました。合掌。

RJOA 072300Z 30004KT 240V020 9999 FEW015 01/M02 Q1011

20170308_sjo621_22

長野から西は、これといった目標物も無く、まもなく広島空港

20170308_sjo621_23rjoa

広島RW28ファイナル。この編、山が迫っているので、非常にスリルがある。

20170308_sjo621_24rjoa

はーい、ランディング

20170308_sjo621_25rjoa

誘導路へ出て

20170308_sjo621_26rjoa

まだ朝一の出発機が並んでいます。

20170308_sjo621_27ja01gr

SOJ621 RJAA-RJOA JA01GR B737-81D

さて、これからドーショウ

|

« 臨時 富山空港 2017/3/15 wed | トップページ | 定点 富山空港 2017/3/17 fri »

成田国際空港」カテゴリの記事

空撮」カテゴリの記事

広島空港」カテゴリの記事

コメント

コメントを書く



(ウェブ上には掲載しません)


コメントは記事投稿者が公開するまで表示されません。



トラックバック


この記事へのトラックバック一覧です: 空旅 SJO621成田-広島 2017/3/7 tue:

« 臨時 富山空港 2017/3/15 wed | トップページ | 定点 富山空港 2017/3/17 fri »